sensor_id;sensor_type;location;lat;lon;timestamp;P1;durP1;ratioP1;P2;durP2;ratioP2
2966;SDS011;1493;51.496;7.210;2023-07-13T00:00:35;3.20;;;1.23;;
2966;SDS011;1493;51.496;7.210;2023-07-13T00:03:03;4.13;;;1.50;;
2966;SDS011;1493;51.496;7.210;2023-07-13T00:05:30;3.50;;;1.20;;
2966;SDS011;1493;51.496;7.210;2023-07-13T00:07:57;4.73;;;1.20;;
2966;SDS011;1493;51.496;7.210;2023-07-13T00:10:24;3.80;;;1.40;;
2966;SDS011;1493;51.496;7.210;2023-07-13T00:12:51;3.77;;;1.30;;
2966;SDS011;1493;51.496;7.210;2023-07-13T00:15:20;3.60;;;1.60;;
2966;SDS011;1493;51.496;7.210;2023-07-13T00:17:49;3.50;;;1.50;;
2966;SDS011;1493;51.496;7.210;2023-07-13T00:20:18;2.93;;;1.50;;
2966;SDS011;1493;51.496;7.210;2023-07-13T00:22:46;4.10;;;1.40;;
2966;SDS011;1493;51.496;7.210;2023-07-13T00:25:13;3.63;;;1.40;;
2966;SDS011;1493;51.496;7.210;2023-07-13T00:27:41;3.20;;;1.30;;
2966;SDS011;1493;51.496;7.210;2023-07-13T00:30:09;3.33;;;1.20;;
2966;SDS011;1493;51.496;7.210;2023-07-13T00:32:37;7.43;;;2.30;;
2966;SDS011;1493;51.496;7.210;2023-07-13T00:35:04;5.90;;;1.40;;
2966;SDS011;1493;51.496;7.210;2023-07-13T00:37:33;4.10;;;1.77;;
2966;SDS011;1493;51.496;7.210;2023-07-13T00:40:00;5.20;;;1.63;;
2966;SDS011;1493;51.496;7.210;2023-07-13T00:42:28;6.33;;;1.70;;
2966;SDS011;1493;51.496;7.210;2023-07-13T00:45:02;4.23;;;1.43;;
2966;SDS011;1493;51.496;7.210;2023-07-13T00:47:30;5.23;;;1.43;;
2966;SDS011;1493;51.496;7.210;2023-07-13T00:49:57;2.70;;;1.50;;
2966;SDS011;1493;51.496;7.210;2023-07-13T00:52:24;4.73;;;1.70;;
2966;SDS011;1493;51.496;7.210;2023-07-13T00:54:52;3.17;;;1.60;;
2966;SDS011;1493;51.496;7.210;2023-07-13T00:57:20;4.83;;;1.83;;
2966;SDS011;1493;51.496;7.210;2023-07-13T00:59:49;5.90;;;1.40;;
2966;SDS011;1493;51.496;7.210;2023-07-13T01:02:20;4.20;;;1.80;;
2966;SDS011;1493;51.496;7.210;2023-07-13T01:04:47;5.53;;;1.30;;
2966;SDS011;1493;51.496;7.210;2023-07-13T01:07:14;5.53;;;2.00;;
2966;SDS011;1493;51.496;7.210;2023-07-13T01:09:41;5.13;;;1.30;;
2966;SDS011;1493;51.496;7.210;2023-07-13T01:12:11;3.40;;;1.30;;
2966;SDS011;1493;51.496;7.210;2023-07-13T01:14:38;4.57;;;1.60;;
2966;SDS011;1493;51.496;7.210;2023-07-13T01:17:07;3.67;;;1.87;;
2966;SDS011;1493;51.496;7.210;2023-07-13T01:19:36;4.90;;;1.40;;
2966;SDS011;1493;51.496;7.210;2023-07-13T01:22:06;3.53;;;1.50;;
2966;SDS011;1493;51.496;7.210;2023-07-13T01:24:36;3.20;;;1.37;;
2966;SDS011;1493;51.496;7.210;2023-07-13T01:27:04;6.43;;;1.70;;
2966;SDS011;1493;51.496;7.210;2023-07-13T01:29:33;2.87;;;1.37;;
2966;SDS011;1493;51.496;7.210;2023-07-13T01:32:07;4.27;;;1.20;;
2966;SDS011;1493;51.496;7.210;2023-07-13T01:34:34;3.83;;;1.30;;
2966;SDS011;1493;51.496;7.210;2023-07-13T01:37:02;3.73;;;1.40;;
2966;SDS011;1493;51.496;7.210;2023-07-13T01:39:31;6.50;;;1.20;;
2966;SDS011;1493;51.496;7.210;2023-07-13T01:41:58;4.90;;;1.30;;
2966;SDS011;1493;51.496;7.210;2023-07-13T01:44:25;3.87;;;1.10;;
2966;SDS011;1493;51.496;7.210;2023-07-13T01:46:52;6.13;;;1.37;;
2966;SDS011;1493;51.496;7.210;2023-07-13T01:49:19;3.37;;;1.37;;
2966;SDS011;1493;51.496;7.210;2023-07-13T01:51:45;2.73;;;1.20;;
2966;SDS011;1493;51.496;7.210;2023-07-13T01:54:12;4.50;;;1.20;;
2966;SDS011;1493;51.496;7.210;2023-07-13T01:56:40;4.23;;;1.33;;
2966;SDS011;1493;51.496;7.210;2023-07-13T01:59:07;4.07;;;1.10;;
2966;SDS011;1493;51.496;7.210;2023-07-13T02:01:34;8.20;;;1.10;;
2966;SDS011;1493;51.496;7.210;2023-07-13T02:04:01;5.23;;;1.40;;
2966;SDS011;1493;51.496;7.210;2023-07-13T02:06:28;3.23;;;1.10;;
2966;SDS011;1493;51.496;7.210;2023-07-13T02:08:55;3.60;;;1.10;;
2966;SDS011;1493;51.496;7.210;2023-07-13T02:11:22;3.67;;;1.20;;
2966;SDS011;1493;51.496;7.210;2023-07-13T02:13:51;5.77;;;1.83;;
2966;SDS011;1493;51.496;7.210;2023-07-13T02:16:18;4.17;;;1.30;;
2966;SDS011;1493;51.496;7.210;2023-07-13T02:18:44;4.03;;;1.20;;
2966;SDS011;1493;51.496;7.210;2023-07-13T02:21:11;4.70;;;1.30;;
2966;SDS011;1493;51.496;7.210;2023-07-13T02:23:38;5.10;;;1.90;;
2966;SDS011;1493;51.496;7.210;2023-07-13T02:26:05;5.03;;;2.13;;
2966;SDS011;1493;51.496;7.210;2023-07-13T02:28:31;5.23;;;1.13;;
2966;SDS011;1493;51.496;7.210;2023-07-13T02:31:05;4.97;;;1.70;;
2966;SDS011;1493;51.496;7.210;2023-07-13T02:33:33;4.83;;;1.40;;
2966;SDS011;1493;51.496;7.210;2023-07-13T02:35:59;4.03;;;1.47;;
2966;SDS011;1493;51.496;7.210;2023-07-13T02:38:26;3.50;;;1.20;;
2966;SDS011;1493;51.496;7.210;2023-07-13T02:40:53;7.07;;;1.60;;
2966;SDS011;1493;51.496;7.210;2023-07-13T02:43:20;5.80;;;1.20;;
2966;SDS011;1493;51.496;7.210;2023-07-13T02:45:47;4.90;;;1.50;;
2966;SDS011;1493;51.496;7.210;2023-07-13T02:48:16;3.27;;;1.40;;
2966;SDS011;1493;51.496;7.210;2023-07-13T02:50:43;3.83;;;1.30;;
2966;SDS011;1493;51.496;7.210;2023-07-13T02:53:11;4.27;;;1.17;;
2966;SDS011;1493;51.496;7.210;2023-07-13T02:55:41;4.43;;;1.30;;
2966;SDS011;1493;51.496;7.210;2023-07-13T02:58:12;4.40;;;1.10;;
2966;SDS011;1493;51.496;7.210;2023-07-13T03:00:41;4.20;;;1.87;;
2966;SDS011;1493;51.496;7.210;2023-07-13T03:03:08;3.60;;;1.73;;
2966;SDS011;1493;51.496;7.210;2023-07-13T03:05:37;2.40;;;1.30;;
2966;SDS011;1493;51.496;7.210;2023-07-13T03:08:07;5.63;;;2.07;;
2966;SDS011;1493;51.496;7.210;2023-07-13T03:10:34;7.10;;;1.80;;
2966;SDS011;1493;51.496;7.210;2023-07-13T03:13:00;3.07;;;1.13;;
2966;SDS011;1493;51.496;7.210;2023-07-13T03:15:27;2.87;;;1.10;;
2966;SDS011;1493;51.496;7.210;2023-07-13T03:17:54;3.70;;;1.30;;
2966;SDS011;1493;51.496;7.210;2023-07-13T03:20:21;5.20;;;1.47;;
2966;SDS011;1493;51.496;7.210;2023-07-13T03:22:49;4.73;;;1.50;;
2966;SDS011;1493;51.496;7.210;2023-07-13T03:25:16;5.00;;;1.40;;
2966;SDS011;1493;51.496;7.210;2023-07-13T03:27:43;4.67;;;1.50;;
2966;SDS011;1493;51.496;7.210;2023-07-13T03:30:10;5.07;;;1.30;;
2966;SDS011;1493;51.496;7.210;2023-07-13T03:32:38;4.43;;;1.20;;
2966;SDS011;1493;51.496;7.210;2023-07-13T03:35:05;3.50;;;1.30;;
2966;SDS011;1493;51.496;7.210;2023-07-13T03:37:32;4.47;;;2.13;;
2966;SDS011;1493;51.496;7.210;2023-07-13T03:40:01;2.17;;;1.23;;
2966;SDS011;1493;51.496;7.210;2023-07-13T03:42:28;2.80;;;1.60;;
2966;SDS011;1493;51.496;7.210;2023-07-13T03:44:55;3.83;;;1.60;;
2966;SDS011;1493;51.496;7.210;2023-07-13T03:47:21;3.23;;;1.60;;
2966;SDS011;1493;51.496;7.210;2023-07-13T03:49:48;5.53;;;1.63;;
2966;SDS011;1493;51.496;7.210;2023-07-13T03:52:15;3.30;;;1.47;;
2966;SDS011;1493;51.496;7.210;2023-07-13T03:54:42;5.83;;;1.50;;
2966;SDS011;1493;51.496;7.210;2023-07-13T03:57:10;4.90;;;1.60;;
2966;SDS011;1493;51.496;7.210;2023-07-13T03:59:37;5.17;;;1.63;;
2966;SDS011;1493;51.496;7.210;2023-07-13T04:02:04;6.07;;;1.70;;
2966;SDS011;1493;51.496;7.210;2023-07-13T04:04:30;6.13;;;1.97;;
2966;SDS011;1493;51.496;7.210;2023-07-13T04:06:57;5.07;;;1.90;;
2966;SDS011;1493;51.496;7.210;2023-07-13T04:09:24;7.20;;;1.50;;
2966;SDS011;1493;51.496;7.210;2023-07-13T04:11:51;4.73;;;1.23;;
2966;SDS011;1493;51.496;7.210;2023-07-13T04:14:19;5.33;;;1.57;;
2966;SDS011;1493;51.496;7.210;2023-07-13T04:16:46;5.83;;;2.00;;
2966;SDS011;1493;51.496;7.210;2023-07-13T04:19:13;6.23;;;1.13;;
2966;SDS011;1493;51.496;7.210;2023-07-13T04:21:40;4.07;;;1.30;;
2966;SDS011;1493;51.496;7.210;2023-07-13T04:24:07;6.77;;;1.77;;
2966;SDS011;1493;51.496;7.210;2023-07-13T04:26:34;3.13;;;1.30;;
2966;SDS011;1493;51.496;7.210;2023-07-13T04:29:03;3.40;;;1.20;;
2966;SDS011;1493;51.496;7.210;2023-07-13T04:31:32;4.43;;;1.50;;
2966;SDS011;1493;51.496;7.210;2023-07-13T04:33:59;4.20;;;1.83;;
2966;SDS011;1493;51.496;7.210;2023-07-13T04:36:26;6.37;;;1.47;;
2966;SDS011;1493;51.496;7.210;2023-07-13T04:38:53;6.13;;;1.70;;
2966;SDS011;1493;51.496;7.210;2023-07-13T04:41:20;6.07;;;1.60;;
2966;SDS011;1493;51.496;7.210;2023-07-13T04:43:47;5.70;;;1.40;;
2966;SDS011;1493;51.496;7.210;2023-07-13T04:46:15;7.60;;;2.07;;
2966;SDS011;1493;51.496;7.210;2023-07-13T04:48:45;2.90;;;1.50;;
2966;SDS011;1493;51.496;7.210;2023-07-13T04:51:12;5.57;;;1.70;;
2966;SDS011;1493;51.496;7.210;2023-07-13T04:53:39;6.80;;;1.40;;
2966;SDS011;1493;51.496;7.210;2023-07-13T04:56:06;3.07;;;1.57;;
2966;SDS011;1493;51.496;7.210;2023-07-13T04:58:33;4.27;;;1.30;;
2966;SDS011;1493;51.496;7.210;2023-07-13T05:01:00;4.00;;;1.27;;
2966;SDS011;1493;51.496;7.210;2023-07-13T05:03:28;4.23;;;1.80;;
2966;SDS011;1493;51.496;7.210;2023-07-13T05:05:57;5.20;;;1.30;;
2966;SDS011;1493;51.496;7.210;2023-07-13T05:08:25;3.87;;;1.90;;
2966;SDS011;1493;51.496;7.210;2023-07-13T05:10:52;6.97;;;1.10;;
2966;SDS011;1493;51.496;7.210;2023-07-13T05:13:19;6.80;;;1.70;;
2966;SDS011;1493;51.496;7.210;2023-07-13T05:15:47;4.73;;;1.57;;
2966;SDS011;1493;51.496;7.210;2023-07-13T05:18:20;3.90;;;1.77;;
2966;SDS011;1493;51.496;7.210;2023-07-13T05:20:54;6.30;;;1.70;;
2966;SDS011;1493;51.496;7.210;2023-07-13T05:23:24;6.93;;;1.93;;
2966;SDS011;1493;51.496;7.210;2023-07-13T05:25:52;3.77;;;1.70;;
2966;SDS011;1493;51.496;7.210;2023-07-13T05:28:19;3.83;;;1.70;;
2966;SDS011;1493;51.496;7.210;2023-07-13T05:30:45;4.70;;;1.40;;
2966;SDS011;1493;51.496;7.210;2023-07-13T05:33:12;9.37;;;1.80;;
2966;SDS011;1493;51.496;7.210;2023-07-13T05:35:39;5.50;;;1.90;;
2966;SDS011;1493;51.496;7.210;2023-07-13T05:38:07;7.23;;;1.70;;
2966;SDS011;1493;51.496;7.210;2023-07-13T05:40:34;8.43;;;1.80;;
2966;SDS011;1493;51.496;7.210;2023-07-13T05:43:01;8.73;;;2.20;;
2966;SDS011;1493;51.496;7.210;2023-07-13T05:45:28;6.47;;;1.87;;
2966;SDS011;1493;51.496;7.210;2023-07-13T05:47:55;6.03;;;2.20;;
2966;SDS011;1493;51.496;7.210;2023-07-13T05:50:21;9.30;;;2.20;;
2966;SDS011;1493;51.496;7.210;2023-07-13T05:52:48;7.50;;;2.13;;
2966;SDS011;1493;51.496;7.210;2023-07-13T05:55:17;6.07;;;2.10;;
2966;SDS011;1493;51.496;7.210;2023-07-13T05:57:44;10.03;;;3.77;;
2966;SDS011;1493;51.496;7.210;2023-07-13T06:00:11;5.53;;;1.90;;
2966;SDS011;1493;51.496;7.210;2023-07-13T06:02:38;7.07;;;2.00;;
2966;SDS011;1493;51.496;7.210;2023-07-13T06:05:05;11.67;;;2.00;;
2966;SDS011;1493;51.496;7.210;2023-07-13T06:07:36;7.10;;;1.90;;
2966;SDS011;1493;51.496;7.210;2023-07-13T06:10:04;6.63;;;2.00;;
2966;SDS011;1493;51.496;7.210;2023-07-13T06:12:32;10.30;;;2.10;;
2966;SDS011;1493;51.496;7.210;2023-07-13T06:14:59;6.50;;;1.90;;
2966;SDS011;1493;51.496;7.210;2023-07-13T06:17:26;6.10;;;2.43;;
2966;SDS011;1493;51.496;7.210;2023-07-13T06:19:53;5.60;;;2.10;;
2966;SDS011;1493;51.496;7.210;2023-07-13T06:22:20;12.20;;;2.20;;
2966;SDS011;1493;51.496;7.210;2023-07-13T06:24:47;6.43;;;2.30;;
2966;SDS011;1493;51.496;7.210;2023-07-13T06:27:13;11.03;;;2.30;;
2966;SDS011;1493;51.496;7.210;2023-07-13T06:29:42;5.70;;;2.40;;
2966;SDS011;1493;51.496;7.210;2023-07-13T06:32:10;6.30;;;1.80;;
2966;SDS011;1493;51.496;7.210;2023-07-13T06:34:37;7.03;;;2.17;;
2966;SDS011;1493;51.496;7.210;2023-07-13T06:37:03;9.40;;;3.10;;
2966;SDS011;1493;51.496;7.210;2023-07-13T06:39:30;10.17;;;2.83;;
2966;SDS011;1493;51.496;7.210;2023-07-13T06:41:58;6.67;;;2.63;;
2966;SDS011;1493;51.496;7.210;2023-07-13T06:44:25;6.40;;;2.33;;
2966;SDS011;1493;51.496;7.210;2023-07-13T06:46:53;8.00;;;2.37;;
2966;SDS011;1493;51.496;7.210;2023-07-13T06:49:20;5.60;;;2.77;;
2966;SDS011;1493;51.496;7.210;2023-07-13T06:51:46;6.17;;;1.87;;
2966;SDS011;1493;51.496;7.210;2023-07-13T06:54:13;14.97;;;2.67;;
2966;SDS011;1493;51.496;7.210;2023-07-13T06:56:40;5.40;;;2.20;;
2966;SDS011;1493;51.496;7.210;2023-07-13T06:59:07;6.70;;;2.10;;
2966;SDS011;1493;51.496;7.210;2023-07-13T07:01:34;5.13;;;1.80;;
2966;SDS011;1493;51.496;7.210;2023-07-13T07:04:02;7.60;;;2.07;;
2966;SDS011;1493;51.496;7.210;2023-07-13T07:06:29;5.00;;;2.30;;
2966;SDS011;1493;51.496;7.210;2023-07-13T07:08:56;7.50;;;2.20;;
2966;SDS011;1493;51.496;7.210;2023-07-13T07:11:25;4.70;;;2.33;;
2966;SDS011;1493;51.496;7.210;2023-07-13T07:13:52;7.13;;;2.50;;
2966;SDS011;1493;51.496;7.210;2023-07-13T07:16:20;4.73;;;1.97;;
2966;SDS011;1493;51.496;7.210;2023-07-13T07:18:47;8.73;;;2.60;;
2966;SDS011;1493;51.496;7.210;2023-07-13T07:21:15;4.43;;;2.10;;
2966;SDS011;1493;51.496;7.210;2023-07-13T07:23:42;8.77;;;2.13;;
2966;SDS011;1493;51.496;7.210;2023-07-13T07:26:09;7.87;;;2.57;;
2966;SDS011;1493;51.496;7.210;2023-07-13T07:28:36;5.63;;;2.33;;
2966;SDS011;1493;51.496;7.210;2023-07-13T07:31:03;7.90;;;2.23;;
2966;SDS011;1493;51.496;7.210;2023-07-13T07:33:30;6.53;;;2.30;;
2966;SDS011;1493;51.496;7.210;2023-07-13T07:35:58;6.87;;;2.63;;
2966;SDS011;1493;51.496;7.210;2023-07-13T07:38:26;4.97;;;2.70;;
2966;SDS011;1493;51.496;7.210;2023-07-13T07:40:53;5.33;;;2.30;;
2966;SDS011;1493;51.496;7.210;2023-07-13T07:43:19;5.03;;;2.20;;
2966;SDS011;1493;51.496;7.210;2023-07-13T07:45:46;8.47;;;2.80;;
2966;SDS011;1493;51.496;7.210;2023-07-13T07:48:13;7.70;;;2.10;;
2966;SDS011;1493;51.496;7.210;2023-07-13T07:50:40;9.53;;;2.70;;
2966;SDS011;1493;51.496;7.210;2023-07-13T07:53:07;3.83;;;2.07;;
2966;SDS011;1493;51.496;7.210;2023-07-13T07:55:36;15.23;;;3.03;;
2966;SDS011;1493;51.496;7.210;2023-07-13T07:58:04;8.23;;;2.20;;
2966;SDS011;1493;51.496;7.210;2023-07-13T08:00:31;10.77;;;2.93;;
2966;SDS011;1493;51.496;7.210;2023-07-13T08:02:58;10.00;;;1.80;;
2966;SDS011;1493;51.496;7.210;2023-07-13T08:05:25;6.60;;;2.63;;
2966;SDS011;1493;51.496;7.210;2023-07-13T08:07:52;7.33;;;2.60;;
2966;SDS011;1493;51.496;7.210;2023-07-13T08:10:19;8.40;;;3.10;;
2966;SDS011;1493;51.496;7.210;2023-07-13T08:12:47;6.50;;;2.60;;
2966;SDS011;1493;51.496;7.210;2023-07-13T08:15:15;4.50;;;2.20;;
2966;SDS011;1493;51.496;7.210;2023-07-13T08:17:42;4.80;;;2.67;;
2966;SDS011;1493;51.496;7.210;2023-07-13T08:20:09;6.00;;;2.30;;
2966;SDS011;1493;51.496;7.210;2023-07-13T08:22:36;6.20;;;1.93;;
2966;SDS011;1493;51.496;7.210;2023-07-13T08:25:03;10.30;;;2.93;;
2966;SDS011;1493;51.496;7.210;2023-07-13T08:27:31;9.30;;;2.63;;
2966;SDS011;1493;51.496;7.210;2023-07-13T08:29:59;6.53;;;2.20;;
2966;SDS011;1493;51.496;7.210;2023-07-13T08:32:26;9.10;;;2.43;;
2966;SDS011;1493;51.496;7.210;2023-07-13T08:34:53;6.70;;;2.73;;
2966;SDS011;1493;51.496;7.210;2023-07-13T08:37:19;7.97;;;2.50;;
2966;SDS011;1493;51.496;7.210;2023-07-13T08:39:46;6.30;;;2.40;;
2966;SDS011;1493;51.496;7.210;2023-07-13T08:42:15;6.13;;;2.37;;
2966;SDS011;1493;51.496;7.210;2023-07-13T08:44:50;5.43;;;2.33;;
2966;SDS011;1493;51.496;7.210;2023-07-13T08:47:24;5.37;;;2.50;;
2966;SDS011;1493;51.496;7.210;2023-07-13T08:49:54;5.60;;;2.33;;
2966;SDS011;1493;51.496;7.210;2023-07-13T08:52:25;5.67;;;1.90;;
2966;SDS011;1493;51.496;7.210;2023-07-13T08:54:58;9.23;;;2.90;;
2966;SDS011;1493;51.496;7.210;2023-07-13T08:57:32;5.20;;;2.57;;
2966;SDS011;1493;51.496;7.210;2023-07-13T09:00:00;4.10;;;2.40;;
2966;SDS011;1493;51.496;7.210;2023-07-13T09:02:35;5.40;;;2.53;;
2966;SDS011;1493;51.496;7.210;2023-07-13T09:05:10;9.33;;;2.80;;
2966;SDS011;1493;51.496;7.210;2023-07-13T09:07:43;4.57;;;2.60;;
2966;SDS011;1493;51.496;7.210;2023-07-13T09:10:28;8.50;;;2.03;;
2966;SDS011;1493;51.496;7.210;2023-07-13T09:13:01;4.10;;;2.23;;
2966;SDS011;1493;51.496;7.210;2023-07-13T09:15:39;5.47;;;2.00;;
2966;SDS011;1493;51.496;7.210;2023-07-13T09:18:10;6.20;;;2.20;;
2966;SDS011;1493;51.496;7.210;2023-07-13T09:20:41;5.20;;;2.17;;
2966;SDS011;1493;51.496;7.210;2023-07-13T09:23:12;9.23;;;2.70;;
2966;SDS011;1493;51.496;7.210;2023-07-13T09:25:43;6.47;;;2.20;;
2966;SDS011;1493;51.496;7.210;2023-07-13T09:28:14;5.97;;;2.20;;
2966;SDS011;1493;51.496;7.210;2023-07-13T09:30:46;8.93;;;2.27;;
2966;SDS011;1493;51.496;7.210;2023-07-13T09:33:19;6.83;;;2.70;;
2966;SDS011;1493;51.496;7.210;2023-07-13T09:35:46;4.87;;;2.50;;
2966;SDS011;1493;51.496;7.210;2023-07-13T09:38:13;9.37;;;2.57;;
2966;SDS011;1493;51.496;7.210;2023-07-13T09:40:49;4.20;;;2.13;;
2966;SDS011;1493;51.496;7.210;2023-07-13T09:43:25;3.50;;;1.90;;
2966;SDS011;1493;51.496;7.210;2023-07-13T09:45:53;4.93;;;2.20;;
2966;SDS011;1493;51.496;7.210;2023-07-13T09:48:22;9.13;;;2.10;;
2966;SDS011;1493;51.496;7.210;2023-07-13T09:50:51;4.73;;;2.10;;
2966;SDS011;1493;51.496;7.210;2023-07-13T09:53:22;7.63;;;1.90;;
2966;SDS011;1493;51.496;7.210;2023-07-13T09:55:49;7.70;;;2.40;;
2966;SDS011;1493;51.496;7.210;2023-07-13T09:58:17;6.83;;;2.23;;
2966;SDS011;1493;51.496;7.210;2023-07-13T10:00:53;6.03;;;2.40;;
2966;SDS011;1493;51.496;7.210;2023-07-13T10:03:25;5.40;;;2.10;;
2966;SDS011;1493;51.496;7.210;2023-07-13T10:05:57;4.90;;;2.13;;
2966;SDS011;1493;51.496;7.210;2023-07-13T10:08:35;9.10;;;2.30;;
2966;SDS011;1493;51.496;7.210;2023-07-13T10:11:08;4.17;;;1.93;;
2966;SDS011;1493;51.496;7.210;2023-07-13T10:13:37;5.53;;;2.30;;
2966;SDS011;1493;51.496;7.210;2023-07-13T10:16:08;6.00;;;2.57;;
2966;SDS011;1493;51.496;7.210;2023-07-13T10:18:39;10.50;;;3.47;;
2966;SDS011;1493;51.496;7.210;2023-07-13T10:21:10;8.20;;;3.47;;
2966;SDS011;1493;51.496;7.210;2023-07-13T10:23:40;11.53;;;2.00;;
2966;SDS011;1493;51.496;7.210;2023-07-13T10:26:09;6.07;;;2.03;;
2966;SDS011;1493;51.496;7.210;2023-07-13T10:28:41;6.57;;;1.83;;
2966;SDS011;1493;51.496;7.210;2023-07-13T10:31:13;6.83;;;2.50;;
2966;SDS011;1493;51.496;7.210;2023-07-13T10:33:43;7.40;;;2.53;;
2966;SDS011;1493;51.496;7.210;2023-07-13T10:36:12;4.90;;;1.93;;
2966;SDS011;1493;51.496;7.210;2023-07-13T10:38:43;4.60;;;1.93;;
2966;SDS011;1493;51.496;7.210;2023-07-13T10:41:12;5.37;;;1.80;;
2966;SDS011;1493;51.496;7.210;2023-07-13T10:43:44;5.90;;;2.33;;
2966;SDS011;1493;51.496;7.210;2023-07-13T10:46:15;4.77;;;2.23;;
2966;SDS011;1493;51.496;7.210;2023-07-13T10:48:46;6.50;;;2.23;;
2966;SDS011;1493;51.496;7.210;2023-07-13T10:51:17;6.57;;;2.83;;
2966;SDS011;1493;51.496;7.210;2023-07-13T10:53:46;6.03;;;2.63;;
2966;SDS011;1493;51.496;7.210;2023-07-13T10:56:19;4.67;;;2.23;;
2966;SDS011;1493;51.496;7.210;2023-07-13T10:59:04;6.40;;;2.60;;
2966;SDS011;1493;51.496;7.210;2023-07-13T11:01:40;4.30;;;2.10;;
2966;SDS011;1493;51.496;7.210;2023-07-13T11:04:16;6.83;;;2.70;;
2966;SDS011;1493;51.496;7.210;2023-07-13T11:06:45;8.10;;;2.57;;
2966;SDS011;1493;51.496;7.210;2023-07-13T11:09:24;3.80;;;2.23;;
2966;SDS011;1493;51.496;7.210;2023-07-13T11:11:59;3.47;;;1.90;;
2966;SDS011;1493;51.496;7.210;2023-07-13T11:14:29;7.07;;;3.00;;
2966;SDS011;1493;51.496;7.210;2023-07-13T11:17:00;3.70;;;1.73;;
2966;SDS011;1493;51.496;7.210;2023-07-13T11:20:08;5.93;;;1.57;;
2966;SDS011;1493;51.496;7.210;2023-07-13T11:25:56;5.17;;;1.90;;
2966;SDS011;1493;51.496;7.210;2023-07-13T11:28:25;5.10;;;2.20;;
2966;SDS011;1493;51.496;7.210;2023-07-13T11:31:03;5.80;;;2.50;;
2966;SDS011;1493;51.496;7.210;2023-07-13T11:36:30;7.03;;;1.97;;
2966;SDS011;1493;51.496;7.210;2023-07-13T11:39:03;6.37;;;2.50;;
2966;SDS011;1493;51.496;7.210;2023-07-13T11:41:42;6.80;;;2.73;;
2966;SDS011;1493;51.496;7.210;2023-07-13T11:44:12;5.00;;;1.97;;
2966;SDS011;1493;51.496;7.210;2023-07-13T11:46:44;6.40;;;2.23;;
2966;SDS011;1493;51.496;7.210;2023-07-13T11:49:13;3.97;;;1.47;;
2966;SDS011;1493;51.496;7.210;2023-07-13T11:51:44;5.07;;;2.07;;
2966;SDS011;1493;51.496;7.210;2023-07-13T11:54:19;5.17;;;2.50;;
2966;SDS011;1493;51.496;7.210;2023-07-13T11:56:51;6.50;;;2.03;;
2966;SDS011;1493;51.496;7.210;2023-07-13T11:59:19;5.47;;;2.30;;
2966;SDS011;1493;51.496;7.210;2023-07-13T12:01:47;6.83;;;2.80;;
2966;SDS011;1493;51.496;7.210;2023-07-13T12:04:19;3.40;;;1.97;;
2966;SDS011;1493;51.496;7.210;2023-07-13T12:06:55;10.90;;;2.60;;
2966;SDS011;1493;51.496;7.210;2023-07-13T12:09:25;3.73;;;1.50;;
2966;SDS011;1493;51.496;7.210;2023-07-13T12:11:55;3.83;;;1.90;;
2966;SDS011;1493;51.496;7.210;2023-07-13T12:14:23;8.13;;;2.30;;
2966;SDS011;1493;51.496;7.210;2023-07-13T12:16:51;3.80;;;1.73;;
2966;SDS011;1493;51.496;7.210;2023-07-13T12:19:20;4.67;;;2.33;;
2966;SDS011;1493;51.496;7.210;2023-07-13T12:21:49;4.00;;;2.07;;
2966;SDS011;1493;51.496;7.210;2023-07-13T12:24:20;9.13;;;2.07;;
2966;SDS011;1493;51.496;7.210;2023-07-13T12:26:52;3.90;;;1.80;;
2966;SDS011;1493;51.496;7.210;2023-07-13T12:29:20;6.83;;;2.00;;
2966;SDS011;1493;51.496;7.210;2023-07-13T12:31:48;4.67;;;1.90;;
2966;SDS011;1493;51.496;7.210;2023-07-13T12:34:18;4.17;;;1.93;;
2966;SDS011;1493;51.496;7.210;2023-07-13T12:36:46;2.70;;;1.33;;
2966;SDS011;1493;51.496;7.210;2023-07-13T12:39:15;3.40;;;1.50;;
2966;SDS011;1493;51.496;7.210;2023-07-13T12:41:46;3.90;;;1.63;;
2966;SDS011;1493;51.496;7.210;2023-07-13T12:44:15;6.90;;;2.13;;
2966;SDS011;1493;51.496;7.210;2023-07-13T12:46:51;3.73;;;1.70;;
2966;SDS011;1493;51.496;7.210;2023-07-13T12:49:22;4.60;;;1.70;;
2966;SDS011;1493;51.496;7.210;2023-07-13T12:51:50;3.47;;;2.40;;
2966;SDS011;1493;51.496;7.210;2023-07-13T12:54:24;6.33;;;2.30;;
2966;SDS011;1493;51.496;7.210;2023-07-13T12:56:54;4.53;;;1.50;;
2966;SDS011;1493;51.496;7.210;2023-07-13T12:59:23;3.30;;;1.57;;
2966;SDS011;1493;51.496;7.210;2023-07-13T13:01:55;3.27;;;1.50;;
2966;SDS011;1493;51.496;7.210;2023-07-13T13:04:22;4.23;;;2.37;;
2966;SDS011;1493;51.496;7.210;2023-07-13T13:06:58;3.83;;;1.77;;
2966;SDS011;1493;51.496;7.210;2023-07-13T13:09:27;4.83;;;1.90;;
2966;SDS011;1493;51.496;7.210;2023-07-13T13:11:56;3.70;;;1.40;;
2966;SDS011;1493;51.496;7.210;2023-07-13T13:14:23;4.90;;;1.67;;
2966;SDS011;1493;51.496;7.210;2023-07-13T13:16:50;2.97;;;1.63;;
2966;SDS011;1493;51.496;7.210;2023-07-13T13:19:20;4.50;;;1.60;;
2966;SDS011;1493;51.496;7.210;2023-07-13T13:21:49;6.80;;;1.57;;
2966;SDS011;1493;51.496;7.210;2023-07-13T13:24:18;3.10;;;1.40;;
2966;SDS011;1493;51.496;7.210;2023-07-13T13:26:46;3.30;;;1.87;;
2966;SDS011;1493;51.496;7.210;2023-07-13T13:29:17;4.80;;;1.80;;
2966;SDS011;1493;51.496;7.210;2023-07-13T13:31:46;4.33;;;1.63;;
2966;SDS011;1493;51.496;7.210;2023-07-13T13:34:13;6.87;;;2.03;;
2966;SDS011;1493;51.496;7.210;2023-07-13T13:36:42;4.80;;;2.40;;
2966;SDS011;1493;51.496;7.210;2023-07-13T13:39:19;4.73;;;1.90;;
2966;SDS011;1493;51.496;7.210;2023-07-13T13:41:48;7.97;;;3.20;;
2966;SDS011;1493;51.496;7.210;2023-07-13T13:44:17;5.70;;;2.50;;
2966;SDS011;1493;51.496;7.210;2023-07-13T13:46:45;7.03;;;2.20;;
2966;SDS011;1493;51.496;7.210;2023-07-13T13:49:22;4.73;;;2.90;;
2966;SDS011;1493;51.496;7.210;2023-07-13T13:51:50;4.57;;;3.50;;
2966;SDS011;1493;51.496;7.210;2023-07-13T13:54:18;5.70;;;2.80;;
2966;SDS011;1493;51.496;7.210;2023-07-13T13:56:53;4.00;;;3.23;;
2966;SDS011;1493;51.496;7.210;2023-07-13T13:59:23;3.80;;;2.17;;
2966;SDS011;1493;51.496;7.210;2023-07-13T14:01:50;5.20;;;3.40;;
2966;SDS011;1493;51.496;7.210;2023-07-13T14:04:18;4.97;;;3.20;;
2966;SDS011;1493;51.496;7.210;2023-07-13T14:06:46;7.70;;;3.80;;
2966;SDS011;1493;51.496;7.210;2023-07-13T14:09:14;6.60;;;3.97;;
2966;SDS011;1493;51.496;7.210;2023-07-13T14:11:44;5.43;;;3.60;;
2966;SDS011;1493;51.496;7.210;2023-07-13T14:14:14;5.27;;;4.70;;
2966;SDS011;1493;51.496;7.210;2023-07-13T14:16:44;6.43;;;4.50;;
2966;SDS011;1493;51.496;7.210;2023-07-13T14:19:12;6.47;;;3.60;;
2966;SDS011;1493;51.496;7.210;2023-07-13T14:21:40;6.23;;;3.70;;
2966;SDS011;1493;51.496;7.210;2023-07-13T14:24:07;5.47;;;3.13;;
2966;SDS011;1493;51.496;7.210;2023-07-13T14:26:36;5.90;;;3.70;;
2966;SDS011;1493;51.496;7.210;2023-07-13T14:29:05;7.23;;;3.77;;
2966;SDS011;1493;51.496;7.210;2023-07-13T14:31:39;8.63;;;4.43;;
2966;SDS011;1493;51.496;7.210;2023-07-13T14:34:08;6.00;;;4.37;;
2966;SDS011;1493;51.496;7.210;2023-07-13T14:36:38;3.70;;;3.23;;
2966;SDS011;1493;51.496;7.210;2023-07-13T14:39:10;5.97;;;3.90;;
2966;SDS011;1493;51.496;7.210;2023-07-13T14:41:39;11.60;;;4.40;;
2966;SDS011;1493;51.496;7.210;2023-07-13T14:44:11;6.87;;;4.43;;
2966;SDS011;1493;51.496;7.210;2023-07-13T14:46:38;11.80;;;4.30;;
2966;SDS011;1493;51.496;7.210;2023-07-13T14:49:05;8.30;;;4.13;;
2966;SDS011;1493;51.496;7.210;2023-07-13T14:51:40;7.33;;;4.77;;
2966;SDS011;1493;51.496;7.210;2023-07-13T14:54:08;11.37;;;5.30;;
2966;SDS011;1493;51.496;7.210;2023-07-13T14:56:36;6.00;;;4.57;;
2966;SDS011;1493;51.496;7.210;2023-07-13T14:59:03;9.97;;;4.37;;
2966;SDS011;1493;51.496;7.210;2023-07-13T15:01:32;6.53;;;5.13;;
2966;SDS011;1493;51.496;7.210;2023-07-13T15:03:59;7.03;;;4.20;;
2966;SDS011;1493;51.496;7.210;2023-07-13T15:06:27;11.73;;;5.90;;
2966;SDS011;1493;51.496;7.210;2023-07-13T15:08:55;8.17;;;5.50;;
2966;SDS011;1493;51.496;7.210;2023-07-13T15:11:22;7.90;;;5.10;;
2966;SDS011;1493;51.496;7.210;2023-07-13T15:13:49;7.10;;;4.17;;
2966;SDS011;1493;51.496;7.210;2023-07-13T15:16:17;7.70;;;4.87;;
2966;SDS011;1493;51.496;7.210;2023-07-13T15:18:47;6.57;;;3.80;;
2966;SDS011;1493;51.496;7.210;2023-07-13T15:21:23;4.63;;;2.60;;
2966;SDS011;1493;51.496;7.210;2023-07-13T15:23:54;5.90;;;3.27;;
2966;SDS011;1493;51.496;7.210;2023-07-13T15:26:21;6.03;;;3.17;;
2966;SDS011;1493;51.496;7.210;2023-07-13T15:28:48;4.20;;;3.57;;
2966;SDS011;1493;51.496;7.210;2023-07-13T15:31:19;5.13;;;3.57;;